Time;durP1;ratioP1;P1;durP2;ratioP2;P2;SDS_P1;SDS_P2;PMS_P1;PMS_P2;Temp;Humidity;BMP_temperature;BMP_pressure;BME280_temperature;BME280_humidity;BME280_pressure;Samples;Min_cycle;Max_cycle;Signal;HPM_P1;HPM_P2
2021/04/22 00:01:33;;;;;;;24.00;21.57;;;14.90;52.30;;;;;;5042071;28;20185;-86
2021/04/22 00:03:58;;;;;;;24.97;22.50;;;14.70;53.30;;;;;;5037238;28;20221;-85
2021/04/22 00:06:24;;;;;;;24.80;21.20;;;14.60;53.00;;;;;;5032979;28;20263;-86
2021/04/22 00:08:50;;;;;;;22.97;20.60;;;14.50;53.40;;;;;;5041875;28;20201;-87
2021/04/22 00:11:16;;;;;;;23.53;21.20;;;14.40;53.80;;;;;;5024368;28;20735;-88
2021/04/22 00:13:41;;;;;;;23.23;20.83;;;14.50;54.00;;;;;;5024519;28;20193;-87
2021/04/22 00:16:07;;;;;;;24.57;22.07;;;14.40;54.90;;;;;;5041413;28;20204;-86
2021/04/22 00:18:33;;;;;;;25.53;22.37;;;14.40;53.40;;;;;;5040019;28;20181;-87
2021/04/22 00:20:59;;;;;;;24.87;22.40;;;14.20;54.60;;;;;;5040390;28;20234;-86
2021/04/22 00:23:25;;;;;;;24.90;22.40;;;14.20;54.80;;;;;;5044669;28;20197;-85
2021/04/22 00:25:51;;;;;;;23.03;20.83;;;14.00;55.00;;;;;;5041846;28;20203;-86
2021/04/22 00:28:17;;;;;;;26.30;22.40;;;14.00;55.80;;;;;;5042504;28;20185;-86
2021/04/22 00:30:43;;;;;;;24.90;22.60;;;14.00;55.90;;;;;;5044090;28;20177;-86
2021/04/22 00:33:15;;;;;;;24.30;21.77;;;13.90;56.50;;;;;;5044427;28;20669;-84
2021/04/22 00:35:41;;;;;;;24.90;22.43;;;14.00;56.20;;;;;;5040671;28;20205;-86
2021/04/22 00:38:08;;;;;;;25.27;22.80;;;14.00;56.40;;;;;;5040287;28;20211;-88
2021/04/22 00:40:36;;;;;;;25.20;22.77;;;13.90;56.50;;;;;;5040711;28;20188;-85
2021/04/22 00:43:03;;;;;;;27.47;24.73;;;13.90;56.90;;;;;;5040915;28;20294;-84
2021/04/22 00:45:29;;;;;;;26.53;23.90;;;13.80;57.40;;;;;;5040395;28;20223;-85
2021/04/22 00:47:55;;;;;;;26.93;24.23;;;13.50;58.30;;;;;;5043402;28;20727;-87
2021/04/22 00:50:25;;;;;;;24.33;22.03;;;13.60;58.50;;;;;;5040616;28;20267;-86
2021/04/22 00:53:00;;;;;;;25.63;23.03;;;13.70;58.20;;;;;;5041352;28;20240;-85
2021/04/22 00:55:27;;;;;;;24.70;22.33;;;13.70;57.90;;;;;;5041823;28;20199;-85
2021/04/22 00:57:53;;;;;;;26.33;22.80;;;13.60;58.30;;;;;;5039794;28;20184;-86
2021/04/22 01:00:23;;;;;;;24.53;22.23;;;13.50;59.20;;;;;;5040141;28;20261;-86
2021/04/22 01:02:50;;;;;;;25.03;22.00;;;13.30;59.70;;;;;;5041273;28;20279;-86
2021/04/22 01:05:21;;;;;;;23.63;21.47;;;13.50;59.50;;;;;;5040203;28;20214;-86
2021/04/22 01:07:48;;;;;;;25.27;22.80;;;13.70;58.90;;;;;;5023630;28;20194;-87
2021/04/22 01:10:16;;;;;;;25.47;22.97;;;13.70;59.20;;;;;;5041344;28;20331;-87
2021/04/22 01:12:43;;;;;;;25.77;23.13;;;13.70;59.50;;;;;;5041159;28;20182;-85
2021/04/22 01:15:12;;;;;;;24.73;22.20;;;13.70;59.90;;;;;;5041167;28;20187;-85
2021/04/22 01:17:38;;;;;;;24.07;21.77;;;13.60;60.30;;;;;;5039750;28;20216;-87
2021/04/22 01:20:13;;;;;;;24.93;22.43;;;13.60;60.80;;;;;;5041173;28;20239;-87
2021/04/22 01:22:39;;;;;;;24.13;21.70;;;13.50;61.30;;;;;;5041023;28;20192;-85
2021/04/22 01:25:08;;;;;;;25.23;22.53;;;13.60;60.90;;;;;;5040423;28;20645;-84
2021/04/22 01:27:35;;;;;;;24.03;21.80;;;13.70;60.60;;;;;;5040554;28;20185;-85
2021/04/22 01:30:02;;;;;;;25.57;23.17;;;13.80;60.10;;;;;;5039036;28;20228;-85
2021/04/22 01:32:27;;;;;;;26.27;23.60;;;13.70;60.90;;;;;;5041066;28;20207;-85
2021/04/22 01:34:53;;;;;;;26.10;23.30;;;13.60;61.10;;;;;;5040016;28;20185;-86
2021/04/22 01:37:19;;;;;;;26.67;23.87;;;13.60;61.10;;;;;;5039208;28;20230;-86
2021/04/22 01:39:46;;;;;;;25.20;22.90;;;13.40;62.00;;;;;;5040501;28;20623;-85
2021/04/22 01:42:12;;;;;;;26.57;23.90;;;13.30;62.40;;;;;;5039648;28;20198;-85
2021/04/22 01:44:37;;;;;;;27.90;25.10;;;13.30;62.20;;;;;;5040340;28;20192;-84
2021/04/22 01:47:03;;;;;;;25.90;23.07;;;13.20;62.30;;;;;;5038601;28;20215;-85
2021/04/22 01:49:29;;;;;;;25.30;22.90;;;13.10;63.00;;;;;;5040338;28;20212;-86
2021/04/22 01:51:54;;;;;;;26.13;23.43;;;13.10;63.00;;;;;;5039780;28;20831;-86
2021/04/22 01:54:20;;;;;;;26.00;23.30;;;13.10;62.60;;;;;;5038237;28;20282;-86
2021/04/22 01:56:46;;;;;;;25.07;22.67;;;13.10;63.00;;;;;;5037949;28;20215;-84
2021/04/22 01:59:11;;;;;;;24.13;21.93;;;12.90;63.80;;;;;;5038425;28;20214;-85
2021/04/22 02:01:37;;;;;;;24.93;22.33;;;13.10;63.00;;;;;;5039185;28;20199;-85
2021/04/22 02:04:03;;;;;;;25.40;22.30;;;13.20;62.40;;;;;;5038210;28;20192;-87
2021/04/22 02:06:29;;;;;;;25.90;23.40;;;13.30;62.10;;;;;;5041689;28;20240;-87
2021/04/22 02:08:54;;;;;;;25.93;23.47;;;13.30;62.00;;;;;;5041213;28;20224;-85
2021/04/22 02:11:20;;;;;;;26.93;23.97;;;13.30;62.10;;;;;;5040853;28;20185;-87
2021/04/22 02:13:45;;;;;;;25.30;22.80;;;13.30;62.30;;;;;;5041186;28;20184;-85
2021/04/22 02:16:11;;;;;;;23.17;20.97;;;13.20;62.30;;;;;;5040252;28;20201;-86
2021/04/22 02:18:37;;;;;;;25.57;22.90;;;13.40;62.00;;;;;;5042932;28;20661;-84
2021/04/22 02:21:03;;;;;;;25.33;22.57;;;13.10;62.60;;;;;;5038316;28;20948;-85
2021/04/22 02:23:30;;;;;;;24.87;22.40;;;12.90;63.50;;;;;;5038302;28;20254;-85
2021/04/22 02:25:56;;;;;;;24.23;21.80;;;12.80;63.60;;;;;;5037887;28;20196;-85
2021/04/22 02:28:21;;;;;;;23.77;21.63;;;13.00;63.20;;;;;;5037938;28;20179;-86
2021/04/22 02:30:47;;;;;;;24.57;22.27;;;13.00;63.50;;;;;;5038082;28;20201;-85
2021/04/22 02:33:17;;;;;;;24.70;22.20;;;12.90;64.00;;;;;;5038513;28;20257;-85
2021/04/22 02:35:45;;;;;;;24.97;22.57;;;12.70;64.50;;;;;;5038588;28;20201;-86
2021/04/22 02:38:12;;;;;;;24.10;21.70;;;12.80;64.30;;;;;;5038966;28;20229;-85
2021/04/22 02:40:41;;;;;;;26.70;22.37;;;12.80;64.10;;;;;;5039130;28;20201;-85
2021/04/22 02:43:10;;;;;;;22.97;20.33;;;12.80;64.20;;;;;;5039006;28;20259;-85
2021/04/22 02:45:40;;;;;;;23.70;21.17;;;12.70;64.20;;;;;;5039120;28;20203;-86
2021/04/22 02:48:07;;;;;;;25.67;21.83;;;12.80;64.10;;;;;;5038411;28;20189;-86
2021/04/22 02:50:36;;;;;;;23.07;20.57;;;12.80;64.10;;;;;;5004582;28;20219;-85
2021/04/22 02:53:02;;;;;;;23.73;21.33;;;12.90;64.20;;;;;;5038540;28;20293;-85
2021/04/22 02:55:28;;;;;;;24.73;22.37;;;12.70;64.60;;;;;;5038913;28;20199;-86
2021/04/22 02:57:53;;;;;;;23.17;20.80;;;12.70;64.70;;;;;;5037883;28;20196;-85
2021/04/22 03:00:21;;;;;;;24.03;21.60;;;12.70;64.80;;;;;;5039426;28;20238;-86
2021/04/22 03:02:48;;;;;;;23.53;21.17;;;12.70;64.60;;;;;;5036915;28;20215;-85
2021/04/22 03:05:15;;;;;;;21.97;19.70;;;12.60;64.90;;;;;;5037359;28;20187;-86
2021/04/22 03:07:41;;;;;;;22.07;19.87;;;12.60;64.90;;;;;;5038327;28;20199;-87
2021/04/22 03:10:09;;;;;;;21.27;19.17;;;12.60;64.70;;;;;;5037261;28;20216;-88
2021/04/22 03:12:36;;;;;;;23.40;20.60;;;12.70;64.60;;;;;;5038327;28;20215;-85
2021/04/22 03:15:03;;;;;;;23.10;20.60;;;12.50;65.10;;;;;;5038113;28;20204;-85
2021/04/22 03:17:29;;;;;;;24.40;21.77;;;12.50;65.30;;;;;;5039182;28;20818;-86
2021/04/22 03:19:54;;;;;;;21.97;19.77;;;12.50;65.30;;;;;;5038720;28;20234;-84
2021/04/22 03:22:20;;;;;;;21.97;19.87;;;12.40;65.50;;;;;;5038772;28;20263;-85
2021/04/22 03:24:46;;;;;;;20.67;18.63;;;12.20;66.00;;;;;;5037181;28;20640;-85
2021/04/22 03:27:11;;;;;;;21.30;19.10;;;12.20;66.10;;;;;;5036721;28;20210;-86
2021/04/22 03:29:37;;;;;;;21.17;18.93;;;12.20;66.00;;;;;;5038062;28;20222;-87
2021/04/22 03:32:03;;;;;;;21.57;19.53;;;12.20;65.90;;;;;;5039225;28;20186;-86
2021/04/22 03:34:28;;;;;;;21.03;18.83;;;12.20;66.00;;;;;;5039042;28;20249;-84
2021/04/22 03:36:54;;;;;;;25.73;18.50;;;12.20;65.90;;;;;;5038634;28;20552;-84
2021/04/22 03:39:20;;;;;;;20.13;18.03;;;12.00;66.20;;;;;;5037373;28;20195;-86
2021/04/22 03:41:45;;;;;;;20.30;18.10;;;11.80;66.80;;;;;;5037134;28;20275;-85
2021/04/22 03:44:11;;;;;;;19.07;16.90;;;11.70;67.20;;;;;;5039164;28;20185;-88
2021/04/22 03:46:37;;;;;;;20.20;18.10;;;11.70;67.20;;;;;;5041934;28;20248;-85
2021/04/22 03:49:04;;;;;;;17.47;15.60;;;11.80;66.90;;;;;;5040371;28;20209;-85
2021/04/22 03:51:30;;;;;;;18.63;16.73;;;11.90;66.50;;;;;;5039753;28;20692;-85
2021/04/22 03:53:56;;;;;;;17.70;15.87;;;12.00;65.90;;;;;;5038760;28;20178;-86
2021/04/22 03:56:21;;;;;;;20.50;16.70;;;12.00;65.60;;;;;;5039560;28;20238;-87
2021/04/22 03:58:47;;;;;;;18.50;16.57;;;11.80;66.10;;;;;;5039609;28;20226;-85
2021/04/22 04:01:13;;;;;;;18.20;16.30;;;11.70;67.00;;;;;;5039173;28;20201;-85
2021/04/22 04:03:38;;;;;;;18.40;16.50;;;11.80;66.50;;;;;;5047564;28;20208;-87
2021/04/22 04:06:04;;;;;;;18.57;16.77;;;11.90;66.10;;;;;;5040639;28;20225;-86
2021/04/22 04:08:30;;;;;;;18.80;16.80;;;12.00;65.40;;;;;;5038075;28;20721;-87
2021/04/22 04:10:55;;;;;;;18.33;16.37;;;12.00;65.20;;;;;;5037456;28;20197;-85
2021/04/22 04:13:21;;;;;;;18.03;16.27;;;12.00;65.10;;;;;;5039559;28;20223;-85
2021/04/22 04:15:48;;;;;;;16.23;14.63;;;11.90;65.00;;;;;;5039456;28;20202;-86
2021/04/22 04:18:14;;;;;;;16.87;15.07;;;11.80;65.40;;;;;;5037906;28;20201;-85
2021/04/22 04:20:41;;;;;;;20.43;15.57;;;11.80;65.60;;;;;;5037651;28;20200;-86
2021/04/22 04:23:07;;;;;;;19.23;14.47;;;11.60;65.90;;;;;;5034905;28;20177;-88
2021/04/22 04:25:32;;;;;;;13.87;12.47;;;11.60;66.10;;;;;;5036655;28;20530;-87
2021/04/22 04:27:58;;;;;;;18.60;14.53;;;11.60;66.30;;;;;;5039191;28;20177;-87
2021/04/22 04:30:24;;;;;;;19.67;15.73;;;11.40;66.70;;;;;;5039785;28;20258;-86
2021/04/22 04:32:49;;;;;;;20.87;15.03;;;11.40;67.60;;;;;;5039192;28;20283;-86
2021/04/22 04:35:15;;;;;;;20.27;14.53;;;11.40;66.70;;;;;;5043016;28;20192;-86
2021/04/22 04:37:41;;;;;;;16.57;13.73;;;11.50;66.60;;;;;;5041821;28;20244;-87
2021/04/22 04:40:10;;;;;;;14.80;13.23;;;11.60;66.20;;;;;;5042133;28;20209;-87
2021/04/22 04:42:36;;;;;;;16.27;12.90;;;11.40;66.20;;;;;;5045642;28;20200;-85
2021/04/22 04:45:04;;;;;;;18.50;13.73;;;11.30;66.90;;;;;;5050270;28;20169;-85
2021/04/22 04:47:30;;;;;;;14.23;12.17;;;11.20;66.90;;;;;;5049864;28;20201;-86
2021/04/22 04:49:57;;;;;;;15.27;12.83;;;11.30;67.20;;;;;;5041585;28;20219;-84
2021/04/22 04:52:23;;;;;;;16.43;13.60;;;11.30;66.60;;;;;;5043579;28;20169;-87
2021/04/22 04:54:49;;;;;;;15.20;13.07;;;11.20;67.40;;;;;;5042161;28;20197;-86
2021/04/22 04:57:14;;;;;;;14.83;13.10;;;11.10;67.40;;;;;;5041108;28;20200;-88
2021/04/22 04:59:40;;;;;;;16.47;12.43;;;11.00;67.50;;;;;;5039193;28;20252;-85
2021/04/22 05:02:06;;;;;;;15.13;12.67;;;10.90;68.00;;;;;;5038918;28;20228;-86
2021/04/22 05:04:32;;;;;;;16.13;12.47;;;11.00;67.30;;;;;;5038324;28;20796;-86
2021/04/22 05:06:58;;;;;;;16.27;11.97;;;10.70;68.20;;;;;;5021890;28;20213;-85
2021/04/22 05:09:24;;;;;;;16.03;12.33;;;10.80;67.50;;;;;;5039609;28;20391;-85
2021/04/22 05:11:50;;;;;;;14.73;11.70;;;10.70;67.60;;;;;;5041037;28;20188;-88
2021/04/22 05:14:16;;;;;;;14.80;10.70;;;10.60;67.80;;;;;;5047977;28;20197;-87
2021/04/22 05:16:41;;;;;;;16.03;11.13;;;10.60;67.60;;;;;;5032976;28;20208;-88
2021/04/22 05:19:07;;;;;;;15.47;11.07;;;10.60;67.80;;;;;;5050756;28;20213;-87
2021/04/22 05:21:33;;;;;;;16.43;11.43;;;10.60;67.40;;;;;;5049401;28;20243;-88
2021/04/22 05:23:58;;;;;;;14.17;10.10;;;10.60;67.30;;;;;;5045759;28;20197;-86
2021/04/22 05:26:24;;;;;;;17.10;10.47;;;10.70;67.00;;;;;;5042591;28;20239;-86
2021/04/22 05:28:51;;;;;;;13.87;10.40;;;10.80;66.30;;;;;;5043108;28;20212;-86
2021/04/22 05:31:17;;;;;;;16.60;10.67;;;10.80;66.20;;;;;;5046126;28;20331;-86
2021/04/22 05:33:43;;;;;;;16.90;11.17;;;10.90;65.70;;;;;;5045763;28;20177;-86
2021/04/22 05:36:09;;;;;;;16.63;13.60;;;10.90;65.60;;;;;;5059262;28;20239;-86
2021/04/22 05:38:34;;;;;;;11.47;8.80;;;10.90;64.80;;;;;;5038696;28;20184;-87
2021/04/22 05:41:01;;;;;;;10.00;9.00;;;10.70;65.40;;;;;;5036130;28;20177;-86
2021/04/22 05:43:27;;;;;;;12.43;9.20;;;10.60;65.70;;;;;;5018134;28;20191;-86
2021/04/22 05:45:53;;;;;;;16.37;9.63;;;10.60;66.00;;;;;;5036589;28;20228;-87
2021/04/22 05:48:19;;;;;;;16.50;8.43;;;10.60;65.80;;;;;;5038860;28;20538;-86
2021/04/22 05:50:44;;;;;;;17.97;8.70;;;10.50;65.30;;;;;;5036728;28;20184;-88
2021/04/22 05:53:10;;;;;;;11.50;8.23;;;10.40;65.80;;;;;;5034239;28;20195;-85
2021/04/22 05:55:36;;;;;;;14.13;8.13;;;10.20;66.20;;;;;;5036527;28;20205;-87
2021/04/22 05:58:02;;;;;;;14.07;7.77;;;10.20;65.80;;;;;;5035470;28;20252;-89
2021/04/22 06:00:29;;;;;;;12.83;8.83;;;10.10;66.20;;;;;;5028423;28;20251;-90
2021/04/22 06:02:56;;;;;;;12.00;8.33;;;10.20;66.50;;;;;;5033348;28;20609;-91
2021/04/22 06:05:22;;;;;;;15.47;8.43;;;10.20;65.60;;;;;;5037056;28;20219;-89
2021/04/22 06:07:47;;;;;;;12.20;9.37;;;10.20;65.60;;;;;;5035676;28;20193;-90
2021/04/22 06:10:14;;;;;;;14.00;8.63;;;10.30;65.50;;;;;;5031913;28;20291;-88
2021/04/22 06:12:40;;;;;;;14.83;7.60;;;10.40;64.70;;;;;;5035446;28;20192;-86
2021/04/22 06:15:08;;;;;;;13.27;7.53;;;10.50;63.30;;;;;;5021778;28;20185;-88
2021/04/22 06:17:33;;;;;;;13.07;7.43;;;10.50;63.30;;;;;;5032835;28;20239;-88
2021/04/22 06:19:59;;;;;;;19.50;7.57;;;10.60;62.60;;;;;;5033539;28;20204;-85
2021/04/22 06:22:24;;;;;;;12.30;7.03;;;10.60;62.00;;;;;;5015396;28;20207;-86
2021/04/22 06:24:50;;;;;;;9.97;6.70;;;10.40;61.70;;;;;;5039129;28;20644;-85
2021/04/22 06:27:16;;;;;;;9.77;7.10;;;10.40;62.30;;;;;;5039806;28;20220;-85
2021/04/22 06:29:42;;;;;;;9.30;7.43;;;10.20;62.30;;;;;;5041338;28;20677;-86
2021/04/22 06:32:08;;;;;;;9.13;6.63;;;10.20;63.70;;;;;;5041071;28;20249;-84
2021/04/22 06:34:34;;;;;;;11.33;6.70;;;10.00;62.60;;;;;;5040729;28;20212;-85
2021/04/22 06:37:02;;;;;;;17.53;7.17;;;10.10;62.20;;;;;;5042422;28;20259;-84
2021/04/22 06:39:28;;;;;;;12.37;6.43;;;10.10;62.20;;;;;;5041398;28;20205;-86
2021/04/22 06:41:54;;;;;;;15.27;6.90;;;10.10;62.70;;;;;;5041584;28;20664;-85
2021/04/22 06:44:20;;;;;;;15.90;7.57;;;10.10;62.00;;;;;;5039522;28;20311;-84
2021/04/22 06:46:45;;;;;;;12.47;6.77;;;10.10;62.30;;;;;;5042970;28;20240;-84
2021/04/22 06:49:11;;;;;;;14.57;7.63;;;10.20;61.80;;;;;;5037437;28;20284;-84
2021/04/22 06:51:37;;;;;;;10.63;7.30;;;10.00;61.40;;;;;;5056327;28;20197;-84
2021/04/22 06:54:04;;;;;;;11.33;6.10;;;10.10;61.00;;;;;;5035933;28;20189;-85
2021/04/22 06:56:30;;;;;;;12.30;7.03;;;10.20;60.90;;;;;;5031089;28;20208;-84
2021/04/22 06:58:56;;;;;;;16.00;6.00;;;10.20;60.00;;;;;;5031081;28;20239;-84
2021/04/22 07:01:22;;;;;;;15.70;7.37;;;10.20;60.40;;;;;;5036828;28;20193;-86
2021/04/22 07:03:48;;;;;;;10.37;6.90;;;10.20;60.00;;;;;;5038723;28;20209;-86
2021/04/22 07:06:14;;;;;;;9.23;5.90;;;10.40;60.10;;;;;;5041502;28;20217;-86
2021/04/22 07:08:41;;;;;;;11.43;6.73;;;10.50;57.60;;;;;;5041012;28;20221;-87
2021/04/22 07:11:07;;;;;;;9.93;6.10;;;10.50;57.20;;;;;;5040454;28;20201;-90
2021/04/22 07:13:32;;;;;;;10.27;6.37;;;10.40;57.00;;;;;;5040615;28;20196;-85
2021/04/22 07:15:59;;;;;;;21.00;6.70;;;10.60;56.50;;;;;;5039558;28;20451;-88
2021/04/22 07:18:24;;;;;;;12.50;6.33;;;10.70;55.40;;;;;;5040660;28;20203;-85
2021/04/22 07:20:50;;;;;;;12.00;6.07;;;10.60;55.00;;;;;;5040447;28;20176;-85
2021/04/22 07:23:16;;;;;;;12.67;6.37;;;10.50;55.80;;;;;;5040424;28;20181;-85
2021/04/22 07:25:42;;;;;;;12.07;5.83;;;10.50;55.10;;;;;;5039574;28;20240;-85
2021/04/22 07:28:09;;;;;;;12.13;5.97;;;10.70;55.40;;;;;;5040765;28;20273;-86
2021/04/22 07:30:37;;;;;;;11.07;5.70;;;10.60;55.20;;;;;;5042192;28;20209;-86
2021/04/22 07:33:04;;;;;;;10.57;5.90;;;10.50;55.40;;;;;;5041760;28;20238;-85
2021/04/22 07:35:30;;;;;;;14.33;6.17;;;10.70;55.20;;;;;;5042886;28;20220;-85
2021/04/22 07:37:55;;;;;;;11.97;6.53;;;10.70;55.30;;;;;;5041687;28;20177;-86
2021/04/22 07:40:25;;;;;;;9.50;5.77;;;10.50;55.20;;;;;;5035273;28;20217;-86
2021/04/22 07:42:52;;;;;;;11.57;6.40;;;10.60;55.10;;;;;;5038791;28;20181;-86
2021/04/22 07:45:21;;;;;;;9.53;6.03;;;10.50;55.20;;;;;;5037970;28;20193;-90
2021/04/22 07:47:46;;;;;;;12.53;6.33;;;10.60;54.80;;;;;;5032658;28;20220;-88
2021/04/22 07:50:14;;;;;;;9.63;5.93;;;10.60;55.60;;;;;;5034870;28;20209;-87
2021/04/22 07:52:41;;;;;;;9.07;6.27;;;10.70;55.20;;;;;;5037502;28;20249;-89
2021/04/22 07:55:09;;;;;;;10.47;5.90;;;10.70;54.90;;;;;;5037743;28;20212;-86
2021/04/22 07:57:35;;;;;;;14.10;6.43;;;10.90;55.10;;;;;;5037018;28;20188;-87
2021/04/22 08:00:05;;;;;;;17.87;6.83;;;10.90;54.60;;;;;;5036486;28;20220;-88
2021/04/22 08:02:30;;;;;;;13.10;6.10;;;11.00;54.10;;;;;;5038086;28;20295;-87
2021/04/22 08:04:56;;;;;;;12.03;6.00;;;11.00;53.80;;;;;;5037276;28;20670;-89
2021/04/22 08:07:22;;;;;;;10.67;5.97;;;11.10;54.10;;;;;;5037370;28;20295;-86
2021/04/22 08:09:48;;;;;;;7.97;5.93;;;11.00;54.50;;;;;;5037853;28;20760;-88
2021/04/22 08:12:13;;;;;;;9.50;6.20;;;11.20;54.10;;;;;;5036689;28;20191;-86
2021/04/22 08:14:39;;;;;;;9.13;5.60;;;11.40;53.40;;;;;;5038107;28;20205;-88
2021/04/22 08:17:04;;;;;;;10.63;5.67;;;11.30;53.40;;;;;;5038153;28;20217;-87
2021/04/22 08:19:33;;;;;;;8.47;5.37;;;11.40;53.50;;;;;;5039175;28;20554;-88
2021/04/22 08:21:59;;;;;;;13.07;5.70;;;11.60;52.80;;;;;;5037840;28;20204;-87
2021/04/22 08:24:25;;;;;;;10.57;6.50;;;11.90;52.20;;;;;;5039153;28;20201;-87
2021/04/22 08:26:51;;;;;;;8.13;5.50;;;11.90;51.60;;;;;;5036350;28;20240;-87
2021/04/22 08:29:17;;;;;;;9.77;5.30;;;11.80;51.70;;;;;;5038046;28;20209;-89
2021/04/22 08:31:42;;;;;;;12.00;6.23;;;11.70;51.90;;;;;;5036584;28;20204;-86
2021/04/22 08:34:08;;;;;;;10.77;6.17;;;11.60;51.70;;;;;;5035162;28;20302;-86
2021/04/22 08:36:35;;;;;;;9.83;5.63;;;11.50;51.80;;;;;;5035121;28;20245;-87
2021/04/22 08:39:04;;;;;;;8.30;4.90;;;11.50;51.30;;;;;;5017054;28;20742;-88
2021/04/22 08:41:30;;;;;;;9.10;4.77;;;11.40;50.30;;;;;;5033581;28;20200;-86
2021/04/22 08:43:56;;;;;;;9.17;5.40;;;11.50;50.40;;;;;;5034627;28;20220;-88
2021/04/22 08:46:23;;;;;;;14.17;5.53;;;11.60;49.90;;;;;;5034308;28;20216;-87
2021/04/22 08:48:49;;;;;;;7.77;5.40;;;11.70;49.30;;;;;;5030766;28;20276;-86
2021/04/22 08:51:15;;;;;;;10.53;5.27;;;12.00;48.60;;;;;;5030929;28;20330;-87
2021/04/22 08:53:45;;;;;;;9.23;5.13;;;11.90;48.10;;;;;;5030210;28;20189;-87
2021/04/22 08:56:11;;;;;;;8.33;5.20;;;12.10;47.70;;;;;;5032430;28;20284;-87
2021/04/22 08:58:37;;;;;;;11.17;6.30;;;12.40;46.60;;;;;;5032974;28;20195;-86
2021/04/22 09:01:07;;;;;;;10.83;5.67;;;12.70;46.40;;;;;;5032260;28;20186;-86
2021/04/22 09:03:33;;;;;;;12.07;5.50;;;12.80;44.80;;;;;;5031219;28;20546;-86
2021/04/22 09:05:59;;;;;;;10.47;5.10;;;12.60;45.20;;;;;;5031377;28;20208;-86
2021/04/22 09:08:43;;;;;;;8.27;4.73;;;12.70;43.80;;;;;;5030798;28;20657;-87
2021/04/22 09:11:11;;;;;;;9.57;4.53;;;12.80;43.60;;;;;;5030863;28;20181;-86
2021/04/22 09:13:36;;;;;;;11.00;5.27;;;12.60;42.80;;;;;;5029503;28;20185;-86
2021/04/22 09:16:16;;;;;;;9.93;4.43;;;12.70;43.40;;;;;;5029351;28;20571;-86
2021/04/22 09:18:51;;;;;;;9.23;5.03;;;12.80;42.50;;;;;;5031669;28;20234;-87
2021/04/22 09:21:18;;;;;;;9.67;4.73;;;12.80;40.90;;;;;;5039665;28;20546;-87
2021/04/22 09:23:54;;;;;;;7.97;4.47;;;12.80;41.30;;;;;;5036357;28;20648;-86
2021/04/22 09:26:22;;;;;;;10.10;4.67;;;13.10;40.70;;;;;;5036842;28;20214;-89
2021/04/22 09:28:48;;;;;;;9.67;4.33;;;13.10;40.20;;;;;;5037743;28;20216;-87
2021/04/22 09:31:27;;;;;;;11.50;4.90;;;13.40;39.80;;;;;;5042267;28;20177;-86
2021/04/22 09:34:13;;;;;;;12.90;5.13;;;13.40;38.80;;;;;;5040847;28;20193;-86
2021/04/22 09:36:59;;;;;;;8.33;5.03;;;13.50;38.70;;;;;;5037211;28;20207;-88
2021/04/22 09:39:28;;;;;;;12.00;4.70;;;13.70;38.00;;;;;;5036102;28;20209;-87
2021/04/22 09:41:58;;;;;;;15.33;4.60;;;13.50;37.50;;;;;;5036208;28;20194;-86
2021/04/22 09:44:24;;;;;;;9.87;4.53;;;13.40;37.90;;;;;;5033293;28;20195;-86
2021/04/22 09:47:12;;;;;;;10.47;4.73;;;13.60;38.00;;;;;;5040709;28;20219;-86
2021/04/22 09:49:55;;;;;;;9.60;4.67;;;13.90;36.30;;;;;;5039673;28;20240;-86
2021/04/22 09:52:21;;;;;;;10.00;4.33;;;14.10;36.60;;;;;;5036064;28;20671;-88
2021/04/22 09:54:54;;;;;;;10.17;4.53;;;14.50;35.60;;;;;;5037659;28;20192;-87
2021/04/22 09:57:32;;;;;;;11.63;4.60;;;14.40;35.70;;;;;;5035972;28;20270;-86
2021/04/22 09:59:59;;;;;;;7.17;4.00;;;14.10;35.10;;;;;;5032881;28;20206;-86
2021/04/22 10:02:26;;;;;;;12.73;5.33;;;14.20;33.90;;;;;;5036761;28;20198;-87
2021/04/22 10:04:55;;;;;;;8.50;4.50;;;14.40;33.90;;;;;;5039313;28;20199;-87
2021/04/22 10:07:24;;;;;;;9.47;3.93;;;14.40;34.00;;;;;;5037952;28;20219;-87
2021/04/22 10:09:52;;;;;;;10.90;4.53;;;14.30;33.50;;;;;;5035186;28;20200;-87
2021/04/22 10:12:21;;;;;;;8.40;4.03;;;14.30;33.40;;;;;;5034149;28;20219;-86
2021/04/22 10:14:47;;;;;;;9.53;4.97;;;14.80;33.10;;;;;;5032936;28;20180;-87
2021/04/22 10:17:20;;;;;;;8.13;4.73;;;14.70;32.00;;;;;;5036343;28;20214;-86
2021/04/22 10:19:57;;;;;;;5.00;3.50;;;14.60;31.70;;;;;;5034337;28;20195;-86
2021/04/22 10:22:35;;;;;;;7.80;4.23;;;14.60;30.90;;;;;;5036275;28;20187;-86
2021/04/22 10:25:16;;;;;;;5.97;3.87;;;14.70;31.30;;;;;;5053907;22;21227;-88
2021/04/22 10:27:42;;;;;;;7.63;4.37;;;14.70;31.10;;;;;;5038931;28;20192;-88
2021/04/22 10:30:29;;;;;;;9.03;4.03;;;14.90;31.10;;;;;;5040423;28;20219;-88
2021/04/22 10:32:55;;;;;;;9.87;4.67;;;14.70;31.00;;;;;;5040952;28;20222;-85
2021/04/22 10:35:23;;;;;;;7.77;4.53;;;15.00;30.30;;;;;;5049860;28;20203;-86
2021/04/22 10:37:52;;;;;;;9.20;4.17;;;15.30;30.10;;;;;;5060084;28;20192;-88
2021/04/22 10:40:22;;;;;;;8.95;4.90;;;15.80;29.90;;;;;;5060678;28;20508;-86
2021/04/22 10:42:48;;;;;;;10.93;4.97;;;16.00;29.50;;;;;;5062801;28;20203;-88
2021/04/22 10:45:17;;;;;;;9.33;4.60;;;16.30;29.90;;;;;;5062698;28;20628;-85
2021/04/22 10:47:43;;;;;;;8.87;3.87;;;16.20;29.20;;;;;;5061406;28;20184;-86
2021/04/22 10:50:26;;;;;;;8.53;3.90;;;16.40;29.20;;;;;;5061937;28;20584;-88
2021/04/22 10:52:53;;;;;;;8.03;4.07;;;16.60;28.50;;;;;;5078235;28;20207;-86
2021/04/22 10:55:26;;;;;;;8.40;4.37;;;16.80;27.50;;;;;;5065190;28;20211;-85
2021/04/22 10:57:55;;;;;;;10.20;4.33;;;16.40;28.40;;;;;;5062819;28;20287;-87
2021/04/22 11:00:24;;;;;;;11.10;4.50;;;16.30;28.80;;;;;;5061382;28;20196;-85
2021/04/22 11:02:52;;;;;;;7.77;4.20;;;16.40;28.10;;;;;;5054806;28;20205;-86
2021/04/22 11:05:31;;;;;;;9.13;4.27;;;16.80;28.20;;;;;;5062387;28;20221;-86
2021/04/22 11:08:04;;;;;;;5.93;3.80;;;16.60;26.30;;;;;;5059402;28;20207;-88
2021/04/22 11:10:40;;;;;;;9.47;4.17;;;16.30;26.80;;;;;;5058016;28;20216;-86
2021/04/22 11:13:19;;;;;;;7.43;4.23;;;16.30;27.30;;;;;;5062459;28;20211;-86
2021/04/22 11:15:54;;;;;;;5.80;3.67;;;16.50;27.00;;;;;;5050053;28;20207;-86
2021/04/22 11:18:21;;;;;;;8.60;3.73;;;16.70;26.70;;;;;;5059283;28;20184;-87
2021/04/22 11:20:47;;;;;;;7.30;4.40;;;16.60;27.10;;;;;;5061117;28;20557;-85
2021/04/22 11:23:18;;;;;;;5.90;3.93;;;16.60;26.30;;;;;;5061016;28;20198;-87
2021/04/22 11:25:49;;;;;;;8.70;3.90;;;16.80;26.30;;;;;;5068323;28;20234;-87
2021/04/22 11:28:26;;;;;;;10.77;4.97;;;17.10;26.60;;;;;;5060988;28;20717;-86
2021/04/22 11:30:52;;;;;;;8.60;4.30;;;17.20;27.60;;;;;;5061282;28;20286;-87
2021/04/22 11:33:27;;;;;;;5.17;3.80;;;17.30;28.20;;;;;;5061538;28;20215;-86
2021/04/22 11:35:53;;;;;;;12.07;4.13;;;17.40;25.90;;;;;;5060206;28;20210;-86
2021/04/22 11:38:19;;;;;;;8.37;4.50;;;17.30;25.30;;;;;;5061744;28;20624;-86
2021/04/22 11:40:48;;;;;;;8.13;3.80;;;17.20;25.00;;;;;;5058256;28;20194;-87
2021/04/22 11:43:20;;;;;;;8.93;4.27;;;16.90;25.50;;;;;;5060557;28;20240;-87
2021/04/22 11:45:51;;;;;;;8.80;4.60;;;16.80;25.90;;;;;;5061075;28;20229;-87
2021/04/22 11:48:17;;;;;;;9.50;4.43;;;17.00;26.30;;;;;;5043849;28;20195;-87
2021/04/22 11:50:55;;;;;;;7.40;4.40;;;17.00;26.10;;;;;;5061871;28;20204;-87
2021/04/22 11:53:33;;;;;;;7.70;4.97;;;17.20;26.30;;;;;;5057945;28;20554;-87
2021/04/22 11:56:00;;;;;;;8.30;4.77;;;17.90;26.00;;;;;;5062660;28;20285;-87
2021/04/22 11:58:28;;;;;;;7.80;5.20;;;17.80;26.00;;;;;;5062567;28;20183;-87
2021/04/22 12:01:00;;;;;;;7.47;4.50;;;18.00;26.20;;;;;;5066419;28;20649;-87
2021/04/22 12:03:27;;;;;;;10.67;4.97;;;17.90;25.80;;;;;;5065893;28;20191;-87
2021/04/22 12:05:58;;;;;;;7.83;4.93;;;18.30;25.60;;;;;;5062476;28;20206;-87
2021/04/22 12:08:35;;;;;;;9.00;5.10;;;18.20;25.50;;;;;;5063398;28;20179;-87
2021/04/22 12:11:03;;;;;;;11.90;5.10;;;18.30;25.60;;;;;;5059252;28;20232;-87
2021/04/22 12:13:30;;;;;;;11.53;5.73;;;18.90;25.10;;;;;;5066566;28;20218;-91
2021/04/22 12:15:59;;;;;;;11.00;4.83;;;18.40;25.10;;;;;;5065574;28;20204;-84
2021/04/22 12:18:32;;;;;;;8.93;4.00;;;18.50;25.60;;;;;;5066725;28;20184;-85
2021/04/22 12:21:13;;;;;;;6.67;4.40;;;18.80;24.00;;;;;;5061082;28;20256;-85
2021/04/22 12:23:45;;;;;;;7.40;5.17;;;18.90;24.90;;;;;;5064752;28;20230;-85
2021/04/22 12:26:18;;;;;;;9.37;5.40;;;19.10;24.30;;;;;;5062911;28;20238;-84
2021/04/22 12:28:57;;;;;;;8.60;5.30;;;19.00;24.60;;;;;;5061419;28;20191;-84
2021/04/22 12:31:31;;;;;;;12.07;5.13;;;19.20;24.80;;;;;;5064974;28;20183;-85
2021/04/22 12:34:09;;;;;;;7.50;4.87;;;19.50;24.60;;;;;;5062114;28;20886;-85
2021/04/22 12:36:37;;;;;;;9.43;4.77;;;19.70;23.70;;;;;;5058845;28;20197;-85
2021/04/22 12:39:05;;;;;;;8.30;5.37;;;20.10;22.70;;;;;;5063061;28;20185;-84